createdAt,value
2023-05-19T00:01:17.605Z,98226.03
2023-05-19T00:04:02.301Z,98215.72
2023-05-19T00:06:33.150Z,98209.88
2023-05-19T00:09:09.552Z,98209.63
2023-05-19T00:11:39.205Z,98215.50
2023-05-19T00:14:09.540Z,98210.75
2023-05-19T00:16:37.936Z,98217.09
2023-05-19T00:19:06.553Z,98224.09
2023-05-19T00:21:33.390Z,98218.78
2023-05-19T00:24:00.289Z,98214.38
2023-05-19T00:26:27.679Z,98217.81
2023-05-19T00:28:55.085Z,98213.44
2023-05-19T00:31:22.053Z,98204.81
2023-05-19T00:33:48.914Z,98204.91
2023-05-19T00:36:15.704Z,98202.44
2023-05-19T00:38:42.651Z,98196.59
2023-05-19T00:41:09.526Z,98200.38
2023-05-19T00:43:36.288Z,98204.81
2023-05-19T00:46:03.458Z,98199.97
2023-05-19T00:48:30.279Z,98196.53
2023-05-19T00:51:03.958Z,98196.66
2023-05-19T00:53:35.346Z,98200.19
2023-05-19T00:56:03.423Z,98199.38
2023-05-19T00:58:33.026Z,98196.03
2023-05-19T01:01:05.168Z,98194.28
2023-05-19T01:03:35.654Z,98192.72
2023-05-19T01:06:07.088Z,98191.97
2023-05-19T01:08:38.311Z,98195.75
2023-05-19T01:11:06.650Z,98194.22
2023-05-19T01:13:36.072Z,98185.88
2023-05-19T01:16:32.536Z,98180.91
2023-05-19T01:19:35.132Z,98172.16
2023-05-19T01:22:57.542Z,98173.09
2023-05-19T01:26:15.981Z,98167.16
2023-05-19T01:28:57.178Z,98175.09
2023-05-19T01:31:25.524Z,98169.28
2023-05-19T01:33:54.146Z,98168.56
2023-05-19T01:36:25.910Z,98167.00
2023-05-19T01:38:57.181Z,98170.66
2023-05-19T01:41:26.120Z,98164.84
2023-05-19T01:43:54.211Z,98169.94
2023-05-19T01:46:21.971Z,98173.47
2023-05-19T01:48:49.476Z,98164.84
2023-05-19T01:51:16.382Z,98157.75
2023-05-19T01:53:43.265Z,98169.94
2023-05-19T01:56:10.525Z,98165.56
2023-05-19T01:58:50.996Z,98176.78
2023-05-19T02:01:47.634Z,98175.13
2023-05-19T02:04:44.845Z,98177.97
2023-05-19T02:07:30.880Z,98174.72
2023-05-19T02:10:13.500Z,98180.78
2023-05-19T02:12:41.418Z,98178.28
2023-05-19T02:15:16.745Z,98190.56
2023-05-19T02:17:51.653Z,98190.56
2023-05-19T02:20:18.806Z,98183.81
2023-05-19T02:22:45.872Z,98184.03
2023-05-19T02:25:12.737Z,98186.75
2023-05-19T02:27:40.260Z,98186.63
2023-05-19T02:30:09.184Z,98185.59
2023-05-19T02:32:36.434Z,98171.03
2023-05-19T02:35:04.100Z,98180.59
2023-05-19T02:37:31.113Z,98167.91
2023-05-19T02:39:58.152Z,98163.97
2023-05-19T02:42:24.932Z,98164.91
2023-05-19T02:44:52.424Z,98158.16
2023-05-19T02:47:19.291Z,98160.03
2023-05-19T02:49:46.261Z,98155.25
2023-05-19T02:52:13.036Z,98153.81
2023-05-19T02:54:39.800Z,98140.28
2023-05-19T02:57:06.772Z,98149.03
2023-05-19T02:59:33.748Z,98142.88
2023-05-19T03:02:02.363Z,98149.03
2023-05-19T03:04:29.946Z,98139.78
2023-05-19T03:06:59.902Z,98156.56
2023-05-19T03:09:26.846Z,98153.22
2023-05-19T03:11:53.628Z,98150.53
2023-05-19T03:14:23.697Z,98149.69
2023-05-19T03:16:50.765Z,98141.78
2023-05-19T03:19:18.118Z,98153.97
2023-05-19T03:21:44.972Z,98154.78
2023-05-19T03:24:11.842Z,98151.13
2023-05-19T03:26:38.893Z,98158.81
2023-05-19T03:29:05.881Z,98157.06
2023-05-19T03:31:32.640Z,98158.72
2023-05-19T03:33:59.468Z,98155.81
2023-05-19T03:36:32.041Z,98160.69
2023-05-19T03:38:59.270Z,98165.66
2023-05-19T03:41:26.082Z,98167.53
2023-05-19T03:43:52.893Z,98173.06
2023-05-19T03:46:19.845Z,98167.22
2023-05-19T03:48:46.745Z,98168.41
2023-05-19T03:51:13.550Z,98176.41
2023-05-19T03:53:41.149Z,98173.09
2023-05-19T03:56:08.835Z,98175.69
2023-05-19T03:58:36.913Z,98176.31
2023-05-19T04:01:03.738Z,98177.63
2023-05-19T04:03:30.630Z,98181.69
2023-05-19T04:05:57.430Z,98184.81
2023-05-19T04:08:24.219Z,98175.00
2023-05-19T04:10:50.982Z,98181.75
2023-05-19T04:13:17.769Z,98184.16
2023-05-19T04:15:44.668Z,98181.47
2023-05-19T04:18:11.604Z,98188.00
2023-05-19T04:20:38.398Z,98179.88
2023-05-19T04:23:05.305Z,98183.09
2023-05-19T04:25:33.358Z,98175.88
2023-05-19T04:28:00.852Z,98183.41
2023-05-19T04:30:28.511Z,98182.34
2023-05-19T04:32:58.022Z,98187.19
2023-05-19T04:35:25.043Z,98185.09
2023-05-19T04:37:54.249Z,98184.91
2023-05-19T04:40:23.565Z,98188.00
2023-05-19T04:42:52.225Z,98185.78
2023-05-19T04:45:19.134Z,98187.13
2023-05-19T04:47:48.106Z,98193.56
2023-05-19T04:50:16.349Z,98194.97
2023-05-19T04:52:45.341Z,98179.03
2023-05-19T04:55:13.210Z,98183.69
2023-05-19T04:57:40.307Z,98184.91
2023-05-19T05:00:12.062Z,98181.03
2023-05-19T05:02:38.928Z,98184.00
2023-05-19T05:05:06.499Z,98182.88
2023-05-19T05:07:33.255Z,98183.69
2023-05-19T05:09:59.996Z,98178.59
2023-05-19T05:12:27.347Z,98182.13
2023-05-19T05:14:54.459Z,98180.47
2023-05-19T05:17:21.530Z,98180.47
2023-05-19T05:19:48.868Z,98176.91
2023-05-19T05:22:16.426Z,98174.09
2023-05-19T05:24:43.521Z,98180.28
2023-05-19T05:27:10.592Z,98178.09
2023-05-19T05:29:37.579Z,98173.97
2023-05-19T05:32:04.705Z,98170.22
2023-05-19T05:34:31.891Z,98172.09
2023-05-19T05:36:58.675Z,98176.03
2023-05-19T05:39:25.566Z,98175.91
2023-05-19T05:41:52.373Z,98174.94
2023-05-19T05:44:19.126Z,98177.19
2023-05-19T05:46:46.314Z,98175.91
2023-05-19T05:49:13.533Z,98177.78
2023-05-19T05:51:42.894Z,98161.78
2023-05-19T05:54:13.216Z,98169.81
2023-05-19T05:56:41.101Z,98170.22
2023-05-19T05:59:07.890Z,98169.84
2023-05-19T06:01:35.850Z,98172.94
2023-05-19T06:04:02.762Z,98176.97
2023-05-19T06:06:29.592Z,98173.53
2023-05-19T06:08:56.364Z,98179.22
2023-05-19T06:11:23.302Z,98176.47
2023-05-19T06:13:50.052Z,98182.06
2023-05-19T06:16:16.895Z,98177.97
2023-05-19T06:18:43.861Z,98170.06
2023-05-19T06:21:13.147Z,98163.03
2023-05-19T06:23:41.052Z,98162.22
2023-05-19T06:26:07.874Z,98160.53
2023-05-19T06:28:34.786Z,98159.81
2023-05-19T06:31:01.697Z,98165.81
2023-05-19T06:33:29.345Z,98166.50
2023-05-19T06:35:56.226Z,98165.28
2023-05-19T06:38:23.074Z,98174.28
2023-05-19T06:40:49.888Z,98178.16
2023-05-19T06:43:16.715Z,98186.63
2023-05-19T06:45:43.572Z,98184.19
2023-05-19T06:48:10.466Z,98176.69
2023-05-19T06:50:37.345Z,98186.34
2023-05-19T06:53:04.148Z,98175.00
2023-05-19T06:55:30.938Z,98174.03
2023-05-19T06:57:57.784Z,98172.31
2023-05-19T07:00:24.939Z,98174.19
2023-05-19T07:02:51.801Z,98167.69
2023-05-19T07:05:18.871Z,98161.34
2023-05-19T07:07:45.639Z,98151.50
2023-05-19T07:10:12.415Z,98155.66
2023-05-19T07:12:39.193Z,98159.56
2023-05-19T07:15:06.740Z,98158.56
2023-05-19T07:17:36.283Z,98150.03
2023-05-19T07:20:06.533Z,98148.91
2023-05-19T07:22:36.432Z,98133.97
2023-05-19T07:25:03.412Z,98141.00
2023-05-19T07:27:30.214Z,98130.22
2023-05-19T07:29:56.981Z,98145.28
2023-05-19T07:32:23.893Z,98132.44
2023-05-19T07:34:50.791Z,98129.16
2023-05-19T07:37:17.683Z,98132.59
2023-05-19T07:39:44.450Z,98134.25
2023-05-19T07:42:11.317Z,98121.44
2023-05-19T07:44:38.093Z,98124.72
2023-05-19T07:47:05.578Z,98130.13
2023-05-19T07:49:32.349Z,98127.91
2023-05-19T07:51:59.104Z,98117.63
2023-05-19T07:54:26.022Z,98118.88
2023-05-19T07:56:52.820Z,98123.41
2023-05-19T07:59:19.622Z,98123.56
2023-05-19T08:01:46.453Z,98124.53
2023-05-19T08:04:13.494Z,98128.09
2023-05-19T08:06:42.573Z,98121.03
2023-05-19T08:09:09.571Z,98125.56
2023-05-19T08:11:36.941Z,98125.97
2023-05-19T08:14:04.010Z,98124.31
2023-05-19T08:16:31.046Z,98121.88
2023-05-19T08:18:57.997Z,98127.00
2023-05-19T08:21:24.753Z,98115.97
2023-05-19T08:23:51.876Z,98114.06
2023-05-19T08:26:18.665Z,98120.53
2023-05-19T08:28:45.418Z,98110.88
2023-05-19T08:31:12.197Z,98120.69
2023-05-19T08:33:39.084Z,98117.66
2023-05-19T08:36:06.552Z,98113.78
2023-05-19T08:38:33.454Z,98112.66
2023-05-19T08:41:00.373Z,98105.31
2023-05-19T08:43:27.558Z,98103.50
2023-05-19T08:45:55.512Z,98093.97
2023-05-19T08:48:22.581Z,98106.50
2023-05-19T08:51:27.522Z,98098.94
2023-05-19T08:54:02.263Z,98107.19
2023-05-19T08:56:30.632Z,98100.84
2023-05-19T08:59:00.333Z,98099.69
2023-05-19T09:01:28.891Z,98108.63
2023-05-19T09:03:55.920Z,98097.47
2023-05-19T09:06:23.332Z,98100.72
2023-05-19T09:08:50.122Z,98099.16
2023-05-19T09:11:16.974Z,98089.03
2023-05-19T09:13:43.916Z,98091.25
2023-05-19T09:16:11.647Z,98093.94
2023-05-19T09:18:40.515Z,98102.50
2023-05-19T09:21:07.864Z,98105.34
2023-05-19T09:23:34.784Z,98099.66
2023-05-19T09:26:04.474Z,98089.25
2023-05-19T09:28:33.685Z,98089.06
2023-05-19T09:31:06.245Z,98092.13
2023-05-19T09:33:38.872Z,98091.44
2023-05-19T09:36:08.348Z,98091.03
2023-05-19T09:38:36.850Z,98085.72
2023-05-19T09:41:05.902Z,98097.06
2023-05-19T09:43:34.559Z,98089.09
2023-05-19T09:46:10.068Z,98090.72
2023-05-19T09:48:38.063Z,98085.25
2023-05-19T09:51:07.877Z,98079.66
2023-05-19T09:53:35.205Z,98074.06
2023-05-19T09:56:03.967Z,98070.84
2023-05-19T09:58:35.121Z,98074.06
2023-05-19T10:01:04.173Z,98072.31
2023-05-19T10:03:34.362Z,98074.38
2023-05-19T10:06:03.831Z,98069.66
2023-05-19T10:08:31.893Z,98064.28
2023-05-19T10:10:59.139Z,98057.13
2023-05-19T10:13:27.125Z,98050.78
2023-05-19T10:15:58.750Z,98049.44
2023-05-19T10:18:27.964Z,98039.59
2023-05-19T10:20:57.624Z,98039.38
2023-05-19T10:23:24.387Z,98030.56
2023-05-19T10:25:57.634Z,98037.16
2023-05-19T10:28:40.938Z,98028.41
2023-05-19T10:31:16.064Z,98025.16
2023-05-19T10:34:18.960Z,98022.75
2023-05-19T10:36:50.370Z,98025.78
2023-05-19T10:39:29.900Z,97999.88
2023-05-19T10:42:16.153Z,98009.91
2023-05-19T10:45:05.116Z,98009.31
2023-05-19T10:47:33.562Z,98011.84
2023-05-19T10:50:01.424Z,98009.25
2023-05-19T10:52:30.862Z,98007.94
2023-05-19T10:54:58.190Z,98017.69
2023-05-19T10:57:34.243Z,98000.72
2023-05-19T11:00:11.588Z,98019.97
2023-05-19T11:02:43.830Z,98015.34
2023-05-19T11:05:18.213Z,98015.09
2023-05-19T11:08:02.269Z,98020.72
2023-05-19T11:10:29.361Z,98024.50
2023-05-19T11:12:58.302Z,98011.13
2023-05-19T11:15:28.987Z,98009.69
2023-05-19T11:17:56.686Z,98010.59
2023-05-19T11:20:29.710Z,98017.06
2023-05-19T11:23:11.038Z,98008.56
2023-05-19T11:25:50.732Z,97987.81
2023-05-19T11:28:20.907Z,97998.06
2023-05-19T11:30:52.341Z,97992.59
2023-05-19T11:33:26.986Z,97985.47
2023-05-19T11:35:58.357Z,97991.66
2023-05-19T11:38:28.040Z,97975.41
2023-05-19T11:40:56.184Z,97978.56
2023-05-19T11:43:26.760Z,97976.28
2023-05-19T11:45:55.626Z,97969.34
2023-05-19T11:48:23.252Z,97977.56
2023-05-19T11:50:50.772Z,97968.88
2023-05-19T11:53:19.387Z,97974.28
2023-05-19T11:55:48.546Z,97969.44
2023-05-19T11:58:16.625Z,97952.72
2023-05-19T12:00:48.233Z,97947.28
2023-05-19T12:03:15.766Z,97945.50
2023-05-19T12:05:48.788Z,97958.94
2023-05-19T12:08:19.749Z,97952.69
2023-05-19T12:10:53.035Z,97951.28
2023-05-19T12:13:20.899Z,97949.66
2023-05-19T12:15:47.676Z,97946.31
2023-05-19T12:18:17.055Z,97946.94
2023-05-19T12:20:45.029Z,97945.78
2023-05-19T12:23:12.480Z,97929.78
2023-05-19T12:25:39.422Z,97928.78
2023-05-19T12:28:07.502Z,97936.56
2023-05-19T12:30:35.253Z,97938.41
2023-05-19T12:33:03.333Z,97937.50
2023-05-19T12:35:35.910Z,97939.88
2023-05-19T12:38:04.770Z,97929.81
2023-05-19T12:40:34.340Z,97912.16
2023-05-19T12:43:01.351Z,97915.53
2023-05-19T12:45:28.831Z,97917.88
2023-05-19T12:47:56.521Z,97906.56
2023-05-19T12:50:31.661Z,97906.44
2023-05-19T12:52:59.883Z,97902.50
2023-05-19T12:55:26.903Z,97912.47
2023-05-19T12:57:57.971Z,97907.59
2023-05-19T13:00:28.429Z,97906.78
2023-05-19T13:03:08.640Z,97901.38
2023-05-19T13:05:40.522Z,97904.28
2023-05-19T13:08:13.795Z,97899.09
2023-05-19T13:10:43.623Z,97902.63
2023-05-19T13:13:11.292Z,97895.59
2023-05-19T13:15:44.846Z,97892.81
2023-05-19T13:18:13.697Z,97897.47
2023-05-19T13:20:43.228Z,97903.78
2023-05-19T13:23:11.781Z,97902.41
2023-05-19T13:25:38.721Z,97901.38
2023-05-19T13:28:06.103Z,97900.56
2023-05-19T13:30:35.625Z,97893.16
2023-05-19T13:33:03.052Z,97900.03
2023-05-19T13:35:36.586Z,97887.63
2023-05-19T13:38:10.089Z,97880.44
2023-05-19T13:40:37.760Z,97877.53
2023-05-19T13:43:04.993Z,97870.63
2023-05-19T13:45:31.839Z,97869.97
2023-05-19T13:47:58.724Z,97875.84
2023-05-19T13:50:25.657Z,97873.06
2023-05-19T13:52:52.450Z,97883.53
2023-05-19T13:55:19.545Z,97881.28
2023-05-19T13:57:46.326Z,97878.16
2023-05-19T14:00:13.751Z,97877.78
2023-05-19T14:02:40.746Z,97882.97
2023-05-19T14:05:07.984Z,97877.47
2023-05-19T14:07:35.505Z,97871.81
2023-05-19T14:10:05.415Z,97874.91
2023-05-19T14:12:41.586Z,97864.25
2023-05-19T14:15:14.575Z,97852.25
2023-05-19T14:17:41.798Z,97854.50
2023-05-19T14:20:09.533Z,97855.63
2023-05-19T14:22:36.365Z,97857.75
2023-05-19T14:25:03.628Z,97860.22
2023-05-19T14:27:30.519Z,97851.19
2023-05-19T14:29:57.494Z,97854.41
2023-05-19T14:32:24.329Z,97853.81
2023-05-19T14:34:52.826Z,97842.97
2023-05-19T14:37:20.449Z,97836.75
2023-05-19T14:39:47.222Z,97849.25
2023-05-19T14:42:14.047Z,97842.53
2023-05-19T14:44:40.831Z,97848.22
2023-05-19T14:47:07.750Z,97844.34
2023-05-19T14:49:34.657Z,97832.63
2023-05-19T14:52:01.575Z,97834.53
2023-05-19T14:54:28.342Z,97831.25
2023-05-19T14:56:55.156Z,97827.75
2023-05-19T14:59:22.111Z,97823.38
2023-05-19T15:01:48.898Z,97832.63
2023-05-19T15:04:15.977Z,97837.22
2023-05-19T15:06:42.875Z,97831.78
2023-05-19T15:09:10.660Z,97828.13
2023-05-19T15:11:37.435Z,97830.25
2023-05-19T15:14:04.281Z,97836.34
2023-05-19T15:16:31.202Z,97843.41
2023-05-19T15:18:58.001Z,97843.09
2023-05-19T15:21:24.781Z,97834.00
2023-05-19T15:23:51.623Z,97842.28
2023-05-19T15:26:18.452Z,97841.75
2023-05-19T15:28:45.439Z,97847.31
2023-05-19T15:31:12.281Z,97838.81
2023-05-19T15:33:39.102Z,97843.06
2023-05-19T15:36:06.238Z,97832.34
2023-05-19T15:38:36.184Z,97843.34
2023-05-19T15:41:07.950Z,97834.38
2023-05-19T15:43:35.029Z,97855.69
2023-05-19T15:46:01.964Z,97857.28
2023-05-19T15:48:28.827Z,97852.28
2023-05-19T15:50:58.021Z,97858.34
2023-05-19T15:53:25.779Z,97867.16
2023-05-19T15:55:52.712Z,97858.41
2023-05-19T15:58:19.474Z,97855.22
2023-05-19T16:00:46.333Z,97842.44
2023-05-19T16:03:13.224Z,97850.72
2023-05-19T16:05:40.256Z,97844.25
2023-05-19T16:08:08.613Z,97845.06
2023-05-19T16:10:35.929Z,97838.81
2023-05-19T16:13:02.750Z,97847.78
2023-05-19T16:15:29.523Z,97837.16
2023-05-19T16:17:57.512Z,97825.25
2023-05-19T16:20:27.774Z,97836.78
2023-05-19T16:22:55.380Z,97823.97
2023-05-19T16:25:22.786Z,97832.06
2023-05-19T16:27:50.260Z,97828.25
2023-05-19T16:30:17.344Z,97827.41
2023-05-19T16:32:44.275Z,97833.66
2023-05-19T16:35:11.329Z,97836.59
2023-05-19T16:37:38.114Z,97832.59
2023-05-19T16:40:05.717Z,97839.28
2023-05-19T16:42:32.723Z,97840.25
2023-05-19T16:44:59.483Z,97841.19
2023-05-19T16:47:26.280Z,97839.78
2023-05-19T16:49:53.171Z,97832.81
2023-05-19T16:52:20.097Z,97832.91
2023-05-19T16:54:47.334Z,97822.91
2023-05-19T16:57:16.657Z,97824.75
2023-05-19T16:59:43.438Z,97825.31
2023-05-19T17:02:10.337Z,97827.34
2023-05-19T17:04:37.229Z,97828.69
2023-05-19T17:07:04.401Z,97831.88
2023-05-19T17:09:31.203Z,97837.16
2023-05-19T17:11:57.984Z,97829.94
2023-05-19T17:14:24.747Z,97816.16
2023-05-19T17:16:52.519Z,97833.59
2023-05-19T17:19:19.405Z,97822.06
2023-05-19T17:21:46.318Z,97828.03
2023-05-19T17:24:13.169Z,97829.63
2023-05-19T17:26:40.025Z,97836.56
2023-05-19T17:29:06.930Z,97836.38
2023-05-19T17:31:33.730Z,97838.88
2023-05-19T17:34:00.568Z,97842.97
2023-05-19T17:36:27.457Z,97838.69
2023-05-19T17:38:54.227Z,97831.44
2023-05-19T17:41:21.805Z,97840.47
2023-05-19T17:43:48.605Z,97841.97
2023-05-19T17:46:15.497Z,97838.97
2023-05-19T17:48:42.369Z,97838.50
2023-05-19T17:51:09.457Z,97842.09
2023-05-19T17:53:36.854Z,97842.41
2023-05-19T17:56:06.859Z,97847.50
2023-05-19T17:58:34.196Z,97845.50
2023-05-19T18:01:01.275Z,97852.38
2023-05-19T18:03:28.553Z,97839.69
2023-05-19T18:05:55.836Z,97846.59
2023-05-19T18:08:22.919Z,97844.09
2023-05-19T18:10:52.470Z,97847.69
2023-05-19T18:13:19.239Z,97849.00
2023-05-19T18:15:46.169Z,97845.06
2023-05-19T18:18:12.961Z,97855.91
2023-05-19T18:20:41.113Z,97842.22
2023-05-19T18:23:07.928Z,97847.81
2023-05-19T18:25:35.585Z,97841.22
2023-05-19T18:28:02.382Z,97845.81
2023-05-19T18:30:29.230Z,97856.63
2023-05-19T18:32:56.182Z,97851.03
2023-05-19T18:35:23.019Z,97854.81
2023-05-19T18:37:49.866Z,97859.84
2023-05-19T18:40:16.644Z,97845.03
2023-05-19T18:42:43.490Z,97851.72
2023-05-19T18:45:10.607Z,97852.53
2023-05-19T18:47:37.422Z,97847.88
2023-05-19T18:50:04.675Z,97848.34
2023-05-19T18:52:31.598Z,97854.47
2023-05-19T18:55:00.649Z,97846.69
2023-05-19T18:57:27.425Z,97851.91
2023-05-19T18:59:54.226Z,97856.25
2023-05-19T19:02:20.988Z,97860.59
2023-05-19T19:04:47.910Z,97859.59
2023-05-19T19:07:14.805Z,97863.78
2023-05-19T19:09:43.506Z,97866.88
2023-05-19T19:12:10.779Z,97873.69
2023-05-19T19:14:38.399Z,97870.84
2023-05-19T19:17:05.514Z,97880.28
2023-05-19T19:19:32.979Z,97882.53
2023-05-19T19:21:59.807Z,97883.94
2023-05-19T19:24:28.323Z,97882.75
2023-05-19T19:26:55.145Z,97895.34
2023-05-19T19:29:22.108Z,97887.19
2023-05-19T19:31:49.124Z,97885.97
2023-05-19T19:34:17.650Z,97889.03
2023-05-19T19:36:44.794Z,97888.50
2023-05-19T19:39:11.951Z,97887.16
2023-05-19T19:41:40.790Z,97889.25
2023-05-19T19:44:07.563Z,97893.94
2023-05-19T19:46:34.608Z,97883.59
2023-05-19T19:49:01.417Z,97888.31
2023-05-19T19:51:28.498Z,97891.09
2023-05-19T19:53:55.362Z,97899.09
2023-05-19T19:56:24.497Z,97902.56
2023-05-19T19:58:51.548Z,97895.94
2023-05-19T20:01:20.574Z,97889.03
2023-05-19T20:03:47.998Z,97896.06
2023-05-19T20:06:14.982Z,97891.94
2023-05-19T20:08:41.771Z,97897.50
2023-05-19T20:11:08.829Z,97889.91
2023-05-19T20:13:35.834Z,97892.94
2023-05-19T20:16:02.716Z,97890.94
2023-05-19T20:18:29.782Z,97890.81
2023-05-19T20:20:56.929Z,97895.13
2023-05-19T20:23:23.881Z,97886.84
2023-05-19T20:26:06.745Z,97889.09
2023-05-19T20:28:37.526Z,97886.03
2023-05-19T20:31:06.162Z,97895.16
2023-05-19T20:33:32.977Z,97891.03
2023-05-19T20:35:59.822Z,97882.66
2023-05-19T20:38:26.991Z,97889.94
2023-05-19T20:40:54.466Z,97894.59
2023-05-19T20:43:21.454Z,97891.59
2023-05-19T20:45:48.459Z,97891.03
2023-05-19T20:48:18.215Z,97891.31
2023-05-19T20:50:45.028Z,97892.44
2023-05-19T20:53:11.838Z,97885.81
2023-05-19T20:55:39.267Z,97891.47
2023-05-19T20:58:07.110Z,97889.00
2023-05-19T21:00:34.274Z,97903.63
2023-05-19T21:03:01.396Z,97901.25
2023-05-19T21:05:28.486Z,97899.75
2023-05-19T21:07:55.503Z,97890.25
2023-05-19T21:10:22.299Z,97893.97
2023-05-19T21:12:49.114Z,97893.28
2023-05-19T21:15:15.970Z,97888.34
2023-05-19T21:17:42.787Z,97891.22
2023-05-19T21:20:10.514Z,97892.47
2023-05-19T21:22:37.300Z,97888.19
2023-05-19T21:25:04.647Z,97890.94
2023-05-19T21:27:32.816Z,97887.66
2023-05-19T21:29:59.970Z,97890.25
2023-05-19T21:32:27.706Z,97883.63
2023-05-19T21:34:54.488Z,97890.94
2023-05-19T21:37:21.727Z,97890.25
2023-05-19T21:39:48.914Z,97885.16
2023-05-19T21:42:15.703Z,97887.19
2023-05-19T21:44:42.473Z,97885.97
2023-05-19T21:47:09.248Z,97887.06
2023-05-19T21:49:36.112Z,97886.63
2023-05-19T21:52:02.920Z,97877.41
2023-05-19T21:54:30.008Z,97890.09
2023-05-19T21:56:56.760Z,97887.63
2023-05-19T21:59:24.603Z,97875.38
2023-05-19T22:01:51.463Z,97874.41
2023-05-19T22:04:18.854Z,97871.38
2023-05-19T22:06:46.048Z,97878.09
2023-05-19T22:09:13.304Z,97879.22
2023-05-19T22:11:40.422Z,97872.75
2023-05-19T22:14:07.202Z,97874.13
2023-05-19T22:16:34.069Z,97871.25
2023-05-19T22:19:01.006Z,97868.63
2023-05-19T22:21:27.879Z,97869.31
2023-05-19T22:23:54.803Z,97856.09
2023-05-19T22:26:21.948Z,97867.09
2023-05-19T22:28:50.053Z,97867.09
2023-05-19T22:31:17.533Z,97866.28
2023-05-19T22:33:44.497Z,97860.66
2023-05-19T22:36:11.534Z,97859.69
2023-05-19T22:38:38.338Z,97859.53
2023-05-19T22:41:05.422Z,97848.94
2023-05-19T22:43:32.244Z,97843.69
2023-05-19T22:45:59.083Z,97845.06
2023-05-19T22:48:26.022Z,97850.00
2023-05-19T22:50:52.855Z,97842.16
2023-05-19T22:53:19.606Z,97842.03
2023-05-19T22:55:46.452Z,97845.50
2023-05-19T22:58:13.249Z,97848.94
2023-05-19T23:00:40.035Z,97849.75
2023-05-19T23:03:06.843Z,97847.97
2023-05-19T23:05:34.348Z,97845.34
2023-05-19T23:08:03.415Z,97846.16
2023-05-19T23:10:30.227Z,97843.41
2023-05-19T23:12:57.027Z,97840.78
2023-05-19T23:15:23.807Z,97841.47
2023-05-19T23:17:50.791Z,97836.09
2023-05-19T23:20:17.585Z,97842.31
2023-05-19T23:22:44.371Z,97837.06
2023-05-19T23:25:11.146Z,97828.25
2023-05-19T23:27:37.958Z,97827.56
2023-05-19T23:30:05.703Z,97820.53
2023-05-19T23:32:32.510Z,97825.78
2023-05-19T23:35:12.721Z,97825.63
2023-05-19T23:37:41.878Z,97819.72
2023-05-19T23:40:09.069Z,97826.75
2023-05-19T23:42:36.931Z,97824.25
2023-05-19T23:45:04.479Z,97819.03
2023-05-19T23:47:31.432Z,97826.88
2023-05-19T23:49:58.239Z,97827.72
2023-05-19T23:52:25.040Z,97827.72
2023-05-19T23:54:51.795Z,97827.84
2023-05-19T23:57:18.574Z,97827.03
2023-05-19T23:59:45.387Z,97822.75
